Arnolds Park, Iowa
Current Conditions -  °F | °C
As of 10:53 PM on Friday 31 Oct 2014 (Local Time) from KSPW Reporting Station
Clear Clear  
Wind Chill: 12°   Ceiling: Unl
Heat Index: 20°   Visibility: 10mi
Dew Point: 14°   Wind: 6mph
Humidity: 78%   Direction: 100°E
Pressure: 30.45"   Gusts: NA
Location:  43.37°N, 95.12°W
Report Text: KSPW 010353Z AUTO 10005KT 10SM CLR M07/M10 A3045 RMK AO2 SLP331 T10671100 TSNO
Loading
Personal Weather Stations






























Interactive Weather Map
Tropical Storm Tracking
New forecast layout! Learn more

10-Day Weather Forecast

Advertisements
Track Severe Weather on mobile